Time;durP1;ratioP1;P1;durP2;ratioP2;P2;SDS_P1;SDS_P2;PMS_P1;PMS_P2;Temp;Humidity;BMP_temperature;BMP_pressure;BME280_temperature;BME280_humidity;BME280_pressure;Samples;Min_cycle;Max_cycle;Signal;HPM_P1;HPM_P2
2022/06/20 00:01:23;;;;;;;5.12;1.90;;;;;;;26.22;31.03;98368.97;4488740;31;20529;-81
2022/06/20 00:03:49;;;;;;;7.85;2.25;;;;;;;26.16;30.92;98364.34;4487391;32;20179;-81
2022/06/20 00:06:20;;;;;;;7.23;2.50;;;;;;;26.21;30.75;98360.03;4486328;32;20081;-81
2022/06/20 00:08:49;;;;;;;5.55;2.33;;;;;;;26.17;31.06;98366.84;4487425;31;20099;-81
2022/06/20 00:11:16;;;;;;;7.35;2.37;;;;;;;26.02;30.99;98361.53;4486319;32;20096;-81
2022/06/20 00:13:43;;;;;;;;;;;;;;;26.14;30.83;98363.72;4487633;31;20372;-81
2022/06/20 00:16:12;;;;;;;5.35;2.28;;;;;;;26.22;30.86;98360.88;4472962;32;19972;-81
2022/06/20 00:18:38;;;;;;;8.05;2.85;;;;;;;26.23;31.46;98357.13;4486218;32;20108;-80
2022/06/20 00:21:03;;;;;;;8.88;3.12;;;;;;;26.19;32.71;98359.41;4487359;31;20131;-81
2022/06/20 00:23:28;;;;;;;9.38;3.12;;;;;;;26.07;33.32;98353.66;4491230;31;20087;-81
2022/06/20 00:25:54;;;;;;;8.00;2.83;;;;;;;25.90;33.77;98354.91;4503031;31;20124;-81
2022/06/20 00:28:20;;;;;;;11.38;3.33;;;;;;;25.74;34.24;98356.00;4503146;31;20471;-81
2022/06/20 00:30:46;;;;;;;8.05;2.87;;;;;;;25.69;34.55;98351.22;4501833;31;20122;-81
2022/06/20 00:33:12;;;;;;;8.63;3.10;;;;;;;25.68;34.82;98354.09;4503094;31;20131;-81
2022/06/20 00:35:38;;;;;;;8.25;3.30;;;;;;;25.65;35.08;98340.97;4501713;31;20080;-80
2022/06/20 00:38:05;;;;;;;8.18;2.95;;;;;;;25.46;35.68;98351.38;4503017;31;20172;-81
2022/06/20 00:40:39;;;;;;;9.18;2.80;;;;;;;25.39;35.88;98352.31;4503060;31;20114;-81
2022/06/20 00:43:06;;;;;;;8.60;2.72;;;;;;;25.42;35.77;98347.37;4501750;31;20128;-81
2022/06/20 00:45:33;;;;;;;7.75;2.97;;;;;;;25.38;35.81;98347.94;4497543;31;20092;-81
2022/06/20 00:48:07;;;;;;;8.32;3.00;;;;;;;25.35;35.87;98345.63;4486099;32;20507;-81
2022/06/20 00:50:33;;;;;;;6.93;2.87;;;;;;;25.31;36.00;98342.47;4487198;31;20118;-81
2022/06/20 00:53:20;;;;;;;8.90;2.80;;;;;;;25.26;36.12;98337.63;4487047;31;20080;-81
2022/06/20 00:55:55;;;;;;;10.32;3.10;;;;;;;25.25;36.36;98327.88;4485682;32;20111;-81
2022/06/20 00:58:23;;;;;;;9.13;3.22;;;;;;;25.26;36.34;98329.53;4485979;32;20104;-81
2022/06/20 01:00:49;;;;;;;8.90;3.20;;;;;;;25.18;36.64;98321.53;4487089;31;20122;-81
2022/06/20 01:03:21;;;;;;;8.80;2.90;;;;;;;25.12;36.82;98325.81;4486902;32;20428;-81
2022/06/20 01:05:54;;;;;;;8.88;2.92;;;;;;;25.10;36.93;98325.19;4486869;31;20102;-81
2022/06/20 01:08:25;;;;;;;9.77;3.35;;;;;;;25.08;37.15;98326.41;4485824;32;20181;-82
2022/06/20 01:10:56;;;;;;;9.73;3.37;;;;;;;25.09;37.47;98325.34;4484567;32;20100;-81
2022/06/20 01:13:23;;;;;;;9.00;2.90;;;;;;;25.01;37.89;98328.16;4485870;32;20179;-81
2022/06/20 01:15:50;;;;;;;7.10;3.00;;;;;;;24.95;37.82;98318.97;4486761;32;20325;-81
2022/06/20 01:18:30;;;;;;;7.60;2.95;;;;;;;24.94;37.82;98311.94;4485709;32;20097;-81
2022/06/20 01:20:57;;;;;;;8.02;3.30;;;;;;;24.92;38.01;98309.41;4485813;32;20101;-81
2022/06/20 01:23:29;;;;;;;9.48;3.08;;;;;;;24.86;38.10;98306.63;4486921;31;20485;-81
2022/06/20 01:26:07;;;;;;;9.38;2.90;;;;;;;24.83;38.20;98302.44;4486830;32;20110;-81
2022/06/20 01:28:35;;;;;;;7.97;3.20;;;;;;;24.83;38.58;98301.63;4486670;31;20087;-82
2022/06/20 01:31:01;;;;;;;8.43;2.90;;;;;;;24.79;38.71;98300.31;4485564;32;20096;-81
2022/06/20 01:33:27;;;;;;;9.77;3.20;;;;;;;24.75;38.98;98297.16;4486717;31;20121;-81
2022/06/20 01:38:39;;;;;;;9.23;2.83;;;;;;;24.67;39.45;98292.72;4486820;32;20168;-81
2022/06/20 01:43:49;;;;;;;8.20;2.90;;;;;;;24.65;39.78;98292.06;4485786;32;20201;-81
2022/06/20 01:46:14;;;;;;;9.90;3.00;;;;;;;24.61;39.75;98290.75;4486521;32;20081;-81
2022/06/20 01:48:43;;;;;;;7.57;2.83;;;;;;;24.57;39.67;98289.47;4485289;32;20157;-80
2022/06/20 01:51:15;;;;;;;7.25;2.62;;;;;;;24.53;39.52;98286.31;4472218;32;20100;-81
2022/06/20 01:53:41;;;;;;;7.40;2.78;;;;;;;24.53;39.24;98286.31;4486368;31;20159;-80
2022/06/20 01:56:08;;;;;;;8.65;2.60;;;;;;;24.50;39.07;98288.50;4485170;32;20111;-80
2022/06/20 01:58:49;;;;;;;8.45;2.90;;;;;;;24.49;38.88;98292.19;4485204;32;20100;-80
2022/06/20 02:01:14;;;;;;;8.45;2.67;;;;;;;24.48;38.83;98291.38;4485268;32;20131;-80
2022/06/20 02:03:42;;;;;;;9.48;2.87;;;;;;;24.42;38.78;98281.34;4486137;31;20108;-79
2022/06/20 02:06:07;;;;;;;;;;;;;;;24.44;38.66;98275.78;4472251;32;20442;-80
2022/06/20 02:08:36;;;;;;;7.53;2.62;;;;;;;24.51;38.46;98272.19;4485100;32;19998;-80
2022/06/20 02:11:43;;;;;;;9.00;2.78;;;;;;;24.44;38.51;98263.16;4485056;32;20084;-80
2022/06/20 02:14:12;;;;;;;7.32;2.75;;;;;;;24.42;38.62;98256.28;4486015;32;20152;-80
2022/06/20 02:16:40;;;;;;;8.82;2.67;;;;;;;24.39;38.72;98251.25;4486391;31;20088;-80
2022/06/20 02:19:07;;;;;;;7.05;2.60;;;;;;;24.37;38.80;98259.50;4485160;32;20100;-81
2022/06/20 02:21:33;;;;;;;9.73;2.80;;;;;;;24.34;38.87;98260.72;4486325;32;20160;-81
2022/06/20 02:24:08;;;;;;;6.93;2.90;;;;;;;24.32;38.98;98257.38;4487303;32;20119;-81
2022/06/20 02:26:37;;;;;;;7.18;2.47;;;;;;;24.33;39.03;98252.81;4487176;32;20076;-81
2022/06/20 02:29:22;;;;;;;7.82;2.80;;;;;;;24.29;39.04;98251.53;4487292;32;20165;-81
2022/06/20 02:31:56;;;;;;;11.43;2.70;;;;;;;24.29;39.10;98246.16;4488177;31;20092;-81
2022/06/20 02:34:23;;;;;;;7.43;2.80;;;;;;;24.27;39.29;98248.19;4486823;32;20151;-81
2022/06/20 02:36:49;;;;;;;8.45;2.78;;;;;;;24.23;39.64;98244.19;4487101;32;20404;-81
2022/06/20 02:39:16;;;;;;;8.73;2.90;;;;;;;24.21;39.91;98238.16;4487162;32;20104;-81
2022/06/20 02:41:42;;;;;;;10.13;3.00;;;;;;;24.17;40.19;98236.88;4486967;32;20127;-81
2022/06/20 02:44:14;;;;;;;9.63;3.00;;;;;;;24.21;40.31;98243.56;4486907;32;20288;-81
2022/06/20 02:46:40;;;;;;;10.90;3.10;;;;;;;24.19;40.29;98248.28;4486805;32;20411;-81
2022/06/20 02:49:09;;;;;;;9.88;2.75;;;;;;;24.16;40.44;98252.16;4486751;32;20451;-81
2022/06/20 02:51:37;;;;;;;11.38;3.17;;;;;;;24.19;40.64;98248.28;4488062;31;20417;-81
2022/06/20 02:54:04;;;;;;;9.65;2.90;;;;;;;24.17;40.88;98251.16;4486736;32;20152;-82
2022/06/20 02:56:34;;;;;;;13.20;3.25;;;;;;;24.17;41.13;98243.09;4486591;32;20096;-81
2022/06/20 02:59:03;;;;;;;9.63;3.15;;;;;;;24.19;41.30;98241.03;4486764;32;20164;-81
2022/06/20 03:01:41;;;;;;;10.50;3.28;;;;;;;24.19;41.48;98242.91;4486759;32;20128;-81
2022/06/20 03:04:08;;;;;;;11.38;3.20;;;;;;;24.19;41.53;98242.91;4486887;32;20118;-82
2022/06/20 03:06:42;;;;;;;8.38;3.10;;;;;;;24.20;41.59;98244.56;4486779;32;20092;-82
2022/06/20 03:09:11;;;;;;;10.85;3.25;;;;;;;24.25;41.55;98240.28;4486696;32;20697;-81
2022/06/20 03:11:39;;;;;;;10.50;3.35;;;;;;;24.26;41.52;98235.75;4486696;32;20472;-82
2022/06/20 03:14:08;;;;;;;8.70;3.08;;;;;;;24.28;41.52;98241.78;4487722;31;20197;-81
2022/06/20 03:16:33;;;;;;;9.25;3.40;;;;;;;24.33;41.47;98239.38;4486601;32;20427;-81
2022/06/20 03:19:01;;;;;;;8.10;2.95;;;;;;;24.38;41.42;98236.09;4487737;31;20123;-81
2022/06/20 03:21:28;;;;;;;10.02;3.22;;;;;;;24.43;41.42;98237.22;4487817;31;20092;-81
2022/06/20 03:23:54;;;;;;;9.23;3.00;;;;;;;24.50;41.54;98240.03;4486659;32;20088;-81
2022/06/20 03:26:21;;;;;;;8.93;3.20;;;;;;;24.52;41.63;98232.63;4487491;31;20073;-81
2022/06/20 03:28:47;;;;;;;;;;;;;;;24.59;41.68;98232.69;4487008;32;20383;-81
2022/06/20 03:31:14;;;;;;;8.73;3.47;;;;;;;24.73;41.63;98229.19;4486540;32;19980;-81
2022/06/20 03:33:40;;;;;;;8.68;3.53;;;;;;;24.69;41.82;98226.00;4485788;32;20107;-81
2022/06/20 03:36:08;;;;;;;10.32;3.58;;;;;;;24.74;41.89;98233.53;4486438;32;20141;-81
2022/06/20 03:38:35;;;;;;;8.60;3.20;;;;;;;24.82;41.90;98233.44;4487556;31;20084;-81
2022/06/20 03:41:04;;;;;;;9.83;3.40;;;;;;;24.84;41.97;98231.38;4487696;31;20143;-81
2022/06/20 03:43:30;;;;;;;8.80;3.37;;;;;;;24.95;41.93;98237.31;4486426;32;20533;-81
2022/06/20 03:46:05;;;;;;;9.55;3.42;;;;;;;24.98;42.06;98232.37;4486309;32;20100;-81
2022/06/20 03:48:41;;;;;;;9.98;3.47;;;;;;;25.04;42.05;98225.41;4486423;32;20100;-81
2022/06/20 03:51:12;;;;;;;10.07;3.60;;;;;;;25.11;42.01;98226.28;4486352;32;20164;-80
2022/06/20 03:54:03;;;;;;;8.80;3.37;;;;;;;25.23;41.99;98234.75;4487535;31;20477;-81
2022/06/20 03:56:36;;;;;;;11.48;3.45;;;;;;;25.46;41.48;98232.72;4486352;32;20116;-81
2022/06/20 03:59:03;;;;;;;8.88;3.35;;;;;;;25.55;41.14;98229.88;4486235;32;20452;-81
2022/06/20 04:01:36;;;;;;;10.63;4.18;;;;;;;25.53;40.89;98232.75;4487512;31;20096;-81
2022/06/20 04:04:19;;;;;;;11.73;4.40;;;;;;;25.56;40.82;98227.00;4486314;32;20403;-81
2022/06/20 04:06:51;;;;;;;10.85;4.30;;;;;;;25.62;40.41;98231.59;4486332;32;20119;-81
2022/06/20 04:12:34;;;;;;;13.55;3.78;;;;;;;25.74;40.22;98223.00;4487504;32;20391;-81
2022/06/20 04:15:34;;;;;;;15.48;4.20;;;;;;;25.86;39.69;98224.13;4487661;31;20088;-81
2022/06/20 04:18:29;;;;;;;10.40;3.83;;;;;;;26.05;39.34;98231.56;4475587;32;20072;-82
2022/06/20 04:20:57;;;;;;;11.75;4.07;;;;;;;26.19;39.24;98228.94;4474373;32;20105;-81
2022/06/20 04:23:32;;;;;;;11.18;3.97;;;;;;;26.29;39.14;98226.75;4486021;32;20088;-81
2022/06/20 04:26:26;;;;;;;13.10;4.15;;;;;;;26.47;38.87;98229.75;4487334;31;20080;-81
2022/06/20 04:29:04;;;;;;;9.65;3.65;;;;;;;26.55;38.57;98220.66;4487223;31;20152;-80
2022/06/20 04:31:50;;;;;;;13.27;3.55;;;;;;;26.59;38.69;98226.53;4486146;32;20112;-81
2022/06/20 04:34:39;;;;;;;12.23;3.83;;;;;;;26.75;38.52;98228.88;4472929;32;20115;-81
2022/06/20 04:37:14;;;;;;;;;;;;;;;26.92;38.29;98226.66;4479099;32;20080;-81
2022/06/20 04:39:46;;;;;;;8.90;3.53;;;;;;;27.07;38.07;98221.91;4486001;32;19976;-81
2022/06/20 04:42:27;;;;;;;9.35;3.95;;;;;;;27.17;37.54;98226.13;4486127;32;20152;-81
2022/06/20 04:44:59;;;;;;;10.52;3.83;;;;;;;27.24;37.04;98229.69;4486875;31;20093;-81
2022/06/20 04:47:25;;;;;;;9.60;3.30;;;;;;;27.35;36.88;98225.56;4486315;32;20400;-81
2022/06/20 04:49:51;;;;;;;9.90;3.72;;;;;;;27.51;36.75;98218.94;4485819;32;20132;-81
2022/06/20 04:52:19;;;;;;;12.02;3.60;;;;;;;27.58;36.74;98228.72;4487070;31;20092;-81
2022/06/20 04:54:44;;;;;;;14.87;3.90;;;;;;;27.67;36.63;98218.53;4487038;31;20177;-81
2022/06/20 04:57:11;;;;;;;9.60;3.65;;;;;;;27.79;36.51;98222.25;4485810;32;20116;-81
2022/06/20 04:59:37;;;;;;;18.30;4.85;;;;;;;27.91;35.97;98217.09;4487135;31;20139;-81
2022/06/20 05:02:06;;;;;;;12.07;3.85;;;;;;;28.12;35.57;98218.72;4486961;32;20096;-81
2022/06/20 05:04:36;;;;;;;15.93;4.85;;;;;;;28.29;35.20;98229.12;4487061;31;20431;-81
2022/06/20 05:07:07;;;;;;;11.32;4.45;;;;;;;28.41;34.77;98235.53;4485890;32;20131;-81
2022/06/20 05:09:43;;;;;;;10.05;4.05;;;;;;;28.50;34.41;98239.69;4486004;32;20072;-81
2022/06/20 05:12:09;;;;;;;10.30;4.15;;;;;;;28.38;34.60;98238.69;4486994;31;20096;-81
2022/06/20 05:14:41;;;;;;;10.15;4.35;;;;;;;28.37;34.62;98242.44;4486930;31;20115;-81
2022/06/20 05:17:13;;;;;;;13.43;4.22;;;;;;;28.60;34.36;98233.88;4485733;32;20141;-81
2022/06/20 05:19:41;;;;;;;11.60;3.95;;;;;;;28.57;34.29;98237.03;4485750;32;20451;-81
2022/06/20 05:22:14;;;;;;;12.85;4.07;;;;;;;28.68;34.18;98233.63;4485635;32;20271;-81
2022/06/20 05:24:43;;;;;;;11.02;4.00;;;;;;;28.89;33.88;98231.69;4485704;32;20096;-82
2022/06/20 05:27:21;;;;;;;10.75;4.40;;;;;;;28.84;33.86;98232.34;4485411;32;20490;-81
2022/06/20 05:29:47;;;;;;;12.25;4.45;;;;;;;28.92;33.34;98231.25;4486720;31;20500;-82
2022/06/20 05:32:23;;;;;;;11.10;3.70;;;;;;;29.01;33.07;98229.94;4485518;32;20122;-82
2022/06/20 05:34:59;;;;;;;9.80;3.87;;;;;;;29.11;32.58;98234.91;4485636;32;20135;-82
2022/06/20 05:37:48;;;;;;;11.02;4.35;;;;;;;29.10;32.81;98242.22;4485509;32;20127;-82
2022/06/20 05:40:22;;;;;;;10.43;3.72;;;;;;;29.21;32.48;98236.12;4486702;31;20432;-82
2022/06/20 05:42:47;;;;;;;12.70;3.60;;;;;;;29.32;32.32;98252.75;4486583;31;20555;-81
2022/06/20 05:45:18;;;;;;;11.00;3.72;;;;;;;29.29;32.62;98254.03;4487287;31;20114;-82
2022/06/20 05:47:55;;;;;;;9.32;3.87;;;;;;;29.50;32.42;98246.63;4487892;31;20080;-82
2022/06/20 05:50:26;;;;;;;9.88;3.33;;;;;;;29.54;32.23;98240.50;4501170;31;20129;-81
2022/06/20 05:52:53;;;;;;;9.65;4.12;;;;;;;29.52;31.91;98242.63;4487907;31;20160;-82
2022/06/20 05:55:24;;;;;;;9.80;3.90;;;;;;;29.63;31.84;98246.50;4502274;31;20160;-82
2022/06/20 05:57:50;;;;;;;12.57;4.20;;;;;;;29.74;31.50;98248.53;4503475;31;20648;-82
2022/06/20 06:00:20;;;;;;;14.87;4.10;;;;;;;29.74;31.41;98245.81;4502712;31;20387;-82
2022/06/20 06:02:52;;;;;;;8.90;3.92;;;;;;;29.92;31.31;98252.38;4502870;31;20097;-81
2022/06/20 06:05:30;;;;;;;26.87;4.78;;;;;;;29.90;31.44;98255.31;4502780;31;20092;-81
2022/06/20 06:08:18;;;;;;;11.25;3.72;;;;;;;29.95;31.47;98251.94;4502984;31;20071;-81
2022/06/20 06:10:51;;;;;;;9.55;3.40;;;;;;;30.06;31.28;98253.09;4503249;31;20410;-81
2022/06/20 06:13:42;;;;;;;12.75;3.65;;;;;;;30.14;30.94;98250.09;4502910;31;20156;-80
2022/06/20 06:19:27;;;;;;;12.20;4.15;;;;;;;30.29;31.15;98245.16;4503001;31;20114;-83
2022/06/20 06:21:54;;;;;;;14.93;4.00;;;;;;;30.27;31.14;98249.13;4495445;31;20084;-82
2022/06/20 06:24:22;;;;;;;11.45;3.80;;;;;;;30.29;31.08;98253.28;4494154;31;20100;-81
2022/06/20 06:26:49;;;;;;;10.90;3.87;;;;;;;30.48;30.92;98242.47;4486174;31;20130;-81
2022/06/20 06:29:19;;;;;;;;;;;;;;;30.49;30.83;98241.41;4483690;31;20189;-82
2022/06/20 06:31:47;;;;;;;10.93;4.10;;;;;;;30.73;30.44;98248.69;4493295;31;20051;-83
2022/06/20 06:34:25;;;;;;;10.50;4.07;;;;;;;30.80;30.10;98237.72;4479798;32;20138;-82
2022/06/20 06:36:53;;;;;;;11.05;4.18;;;;;;;30.81;30.46;98241.25;4499353;31;20118;-88
2022/06/20 06:39:30;;;;;;;10.55;3.97;;;;;;;30.82;30.36;98237.47;4489410;31;20135;-85
2022/06/20 06:41:57;;;;;;;10.57;4.03;;;;;;;30.80;30.66;98237.72;4495312;31;20088;-84
2022/06/20 06:44:35;;;;;;;12.48;3.75;;;;;;;30.81;30.59;98238.53;4489450;31;20153;-84
2022/06/20 06:47:02;;;;;;;14.00;4.25;;;;;;;30.88;30.81;98244.72;4499003;31;20499;-84
2022/06/20 06:49:27;;;;;;;27.67;4.72;;;;;;;31.03;30.34;98236.22;4490502;31;20138;-85
2022/06/20 06:52:20;;;;;;;21.17;4.45;;;;;;;30.99;30.35;98241.28;4493176;31;20100;-84
2022/06/20 06:54:51;;;;;;;13.88;4.05;;;;;;;31.00;30.14;98231.22;4492761;31;20088;-85
2022/06/20 06:57:40;;;;;;;13.27;3.97;;;;;;;30.94;30.48;98235.69;4490322;31;20111;-85
2022/06/20 07:00:05;;;;;;;13.82;4.30;;;;;;;31.07;30.07;98231.97;4491202;31;20111;-85
2022/06/20 07:02:41;;;;;;;13.00;4.12;;;;;;;31.04;30.03;98232.41;4498286;31;20131;-85
2022/06/20 07:05:27;;;;;;;15.25;4.25;;;;;;;31.07;30.17;98226.53;4488476;31;20126;-84
2022/06/20 07:07:58;;;;;;;12.02;4.20;;;;;;;31.08;30.04;98223.56;4492385;31;20096;-85
2022/06/20 07:10:36;;;;;;;11.12;3.85;;;;;;;31.15;30.31;98216.13;4496561;31;20091;-85
2022/06/20 07:13:43;;;;;;;12.75;3.90;;;;;;;31.23;30.04;98211.44;4487435;31;20518;-84
2022/06/20 07:16:20;;;;;;;12.55;4.07;;;;;;;31.34;29.77;98206.03;4491343;31;20131;-84
2022/06/20 07:18:48;;;;;;;11.70;4.23;;;;;;;31.40;29.49;98201.53;4484863;32;20487;-84
2022/06/20 07:21:18;;;;;;;19.87;4.12;;;;;;;31.55;29.61;98195.69;4488908;31;20103;-85
2022/06/20 07:23:57;;;;;;;11.15;4.03;;;;;;;31.61;29.37;98191.22;4494853;31;20161;-84
2022/06/20 07:26:24;;;;;;;13.07;4.05;;;;;;;31.63;29.18;98195.34;4496281;31;20159;-84
2022/06/20 07:28:54;;;;;;;13.88;4.30;;;;;;;31.62;29.10;98195.59;4494897;31;20115;-84
2022/06/20 07:31:30;;;;;;;17.10;4.80;;;;;;;31.78;28.92;98199.53;4502088;31;20109;-85
2022/06/20 07:34:01;;;;;;;12.70;4.15;;;;;;;31.92;28.95;98176.44;4501394;31;20149;-85
2022/06/20 07:36:39;;;;;;;12.77;4.53;;;;;;;31.90;28.70;98181.28;4501164;31;20179;-85
2022/06/20 07:39:11;;;;;;;18.42;4.45;;;;;;;32.03;28.70;98185.72;4501113;31;20122;-85
2022/06/20 07:41:58;;;;;;;15.45;4.30;;;;;;;32.11;29.02;98186.16;4501359;31;20553;-85
2022/06/20 07:44:27;;;;;;;17.67;4.55;;;;;;;32.13;29.21;98177.75;4488167;31;20091;-85
2022/06/20 07:47:00;;;;;;;13.55;4.50;;;;;;;32.11;28.90;98182.62;4501214;31;20164;-85
2022/06/20 07:49:37;;;;;;;12.43;4.50;;;;;;;32.27;28.52;98172.88;4488953;31;20157;-85
2022/06/20 07:52:14;;;;;;;10.90;3.80;;;;;;;32.32;28.43;98176.56;4502334;31;20083;-85
2022/06/20 07:54:46;;;;;;;20.48;4.78;;;;;;;32.40;28.16;98169.09;4502134;31;20098;-85
2022/06/20 07:57:16;;;;;;;10.85;4.22;;;;;;;32.38;27.91;98168.50;4502119;31;20160;-85
2022/06/20 07:59:46;;;;;;;11.98;4.20;;;;;;;32.43;28.23;98174.88;4502076;31;20108;-85
2022/06/20 08:02:24;;;;;;;9.75;3.80;;;;;;;32.45;28.36;98170.03;4502139;31;20438;-85
2022/06/20 08:04:55;;;;;;;22.80;4.85;;;;;;;32.63;27.91;98168.22;4502017;31;20443;-85
2022/06/20 08:07:25;;;;;;;40.75;5.97;;;;;;;32.60;27.63;98171.41;4503352;31;20706;-85
2022/06/20 08:09:54;;;;;;;10.60;3.97;;;;;;;32.70;27.83;98168.88;4502023;31;20108;-85
2022/06/20 08:12:51;;;;;;;15.73;4.87;;;;;;;32.67;27.80;98170.22;4501993;31;20114;-84
2022/06/20 08:15:21;;;;;;;15.27;4.60;;;;;;;32.70;27.80;98158.84;4440899;32;20123;-85
2022/06/20 08:17:47;;;;;;;11.75;4.30;;;;;;;32.61;27.92;98164.91;4454092;32;20094;-85
2022/06/20 08:20:12;;;;;;;12.55;4.00;;;;;;;32.70;27.92;98156.09;4453595;32;20159;-85
2022/06/20 08:22:53;;;;;;;12.07;4.68;;;;;;;32.62;28.02;98166.56;4454080;32;20120;-85
2022/06/20 08:25:23;;;;;;;11.77;4.05;;;;;;;32.78;28.00;98162.22;4454149;32;20123;-85
2022/06/20 08:28:07;;;;;;;11.02;4.03;;;;;;;32.82;28.03;98164.25;4453489;32;20177;-85
2022/06/20 08:30:36;;;;;;;10.73;4.05;;;;;;;32.82;28.17;98161.50;4440975;32;20123;-85
2022/06/20 08:33:15;;;;;;;14.32;4.87;;;;;;;32.89;27.91;98156.72;4453785;32;20156;-85
2022/06/20 08:35:51;;;;;;;18.98;4.90;;;;;;;32.90;28.09;98152.94;4440800;32;20090;-85
2022/06/20 08:38:32;;;;;;;32.97;6.68;;;;;;;32.94;27.82;98145.09;4453739;32;20208;-85
2022/06/20 08:41:15;;;;;;;10.70;4.37;;;;;;;32.83;28.30;98151.41;4453857;32;20124;-85
2022/06/20 08:43:59;;;;;;;23.35;5.57;;;;;;;32.84;27.72;98155.81;4440715;32;20376;-85
2022/06/20 08:46:34;;;;;;;14.23;4.37;;;;;;;32.89;27.61;98147.72;4440665;32;20114;-85
2022/06/20 08:49:18;;;;;;;13.25;4.57;;;;;;;32.96;27.76;98156.59;4453757;32;20116;-85
2022/06/20 08:52:06;;;;;;;11.30;4.10;;;;;;;32.97;27.52;98150.03;4470932;31;20156;-85
2022/06/20 08:55:09;;;;;;;10.37;4.40;;;;;;;33.08;27.51;98149.16;4502936;31;20072;-86
2022/06/20 08:58:10;;;;;;;10.68;4.22;;;;;;;33.10;27.17;98148.94;4503159;31;20275;-85
2022/06/20 09:00:55;;;;;;;10.60;4.53;;;;;;;33.08;27.63;98142.88;4501837;31;20112;-85
2022/06/20 09:03:44;;;;;;;12.07;4.70;;;;;;;33.12;27.90;98144.06;4501719;31;20099;-85
2022/06/20 09:06:34;;;;;;;10.70;4.57;;;;;;;33.15;27.99;98143.59;4502934;31;20091;-85
2022/06/20 09:09:15;;;;;;;13.02;4.53;;;;;;;33.18;28.03;98132.16;4501629;31;20133;-85
2022/06/20 09:11:58;;;;;;;14.05;4.60;;;;;;;32.97;28.39;98136.41;4502669;31;20095;-84
2022/06/20 09:14:32;;;;;;;15.18;4.70;;;;;;;33.09;27.36;98131.72;4502712;31;20088;-85
2022/06/20 09:17:20;;;;;;;9.48;3.95;;;;;;;33.11;27.38;98128.78;4501517;31;20080;-84
2022/06/20 09:20:07;;;;;;;11.40;4.57;;;;;;;33.11;27.37;98128.78;4501695;31;20105;-84
2022/06/20 09:22:51;;;;;;;17.35;5.20;;;;;;;33.09;27.73;98125.44;4503030;31;20130;-84
2022/06/20 09:25:19;;;;;;;16.98;5.28;;;;;;;33.10;27.78;98125.22;4502991;31;20084;-85
2022/06/20 09:28:13;;;;;;;17.45;5.30;;;;;;;33.09;27.95;98111.81;4502429;31;20092;-84
2022/06/20 09:30:49;;;;;;;11.73;4.55;;;;;;;33.16;28.37;98107.03;4501351;31;20088;-85
2022/06/20 09:33:20;;;;;;;16.70;5.57;;;;;;;33.26;28.19;98114.56;4502691;31;20454;-85
2022/06/20 09:36:04;;;;;;;23.90;5.37;;;;;;;33.28;27.67;98098.75;4502430;31;20163;-85
2022/06/20 09:38:38;;;;;;;12.55;5.15;;;;;;;33.19;28.00;98084.72;4502597;31;20091;-85
2022/06/20 09:41:18;;;;;;;11.98;5.47;;;;;;;33.13;28.33;98085.69;4501217;31;20427;-85
2022/06/20 09:43:44;;;;;;;11.23;5.10;;;;;;;33.29;28.31;98084.88;4501329;31;20171;-84
2022/06/20 09:46:31;;;;;;;16.37;5.18;;;;;;;33.10;28.34;98083.47;4502257;31;20458;-85
2022/06/20 09:49:17;;;;;;;11.95;5.05;;;;;;;33.15;28.76;98082.69;4501379;31;20106;-85
2022/06/20 09:52:10;;;;;;;35.28;6.50;;;;;;;33.20;28.47;98080.87;4501132;31;20106;-85
2022/06/20 09:55:13;;;;;;;11.20;5.05;;;;;;;33.17;28.22;98094.22;4502158;31;20435;-84
2022/06/20 09:57:56;;;;;;;10.68;4.57;;;;;;;33.16;28.24;98078.91;4502409;31;20117;-85
2022/06/20 10:00:44;;;;;;;9.63;4.87;;;;;;;33.18;28.52;98068.56;4501287;31;20092;-85
2022/06/20 10:03:25;;;;;;;17.52;5.40;;;;;;;33.17;28.04;98064.22;4502492;31;20119;-85
2022/06/20 10:06:00;;;;;;;14.65;5.05;;;;;;;33.14;28.36;98075.59;4502298;31;20107;-84
2022/06/20 10:08:37;;;;;;;12.65;4.37;;;;;;;33.11;28.35;98071.47;4502185;31;20096;-85
2022/06/20 10:11:35;;;;;;;12.60;4.50;;;;;;;33.21;27.91;98068.09;4500968;31;20084;-83
2022/06/20 10:14:19;;;;;;;10.03;4.43;;;;;;;33.19;27.85;98059.31;4500445;31;20100;-85
2022/06/20 10:17:08;;;;;;;13.27;4.28;;;;;;;33.22;28.11;98064.28;4501785;31;20134;-84
2022/06/20 10:19:50;;;;;;;10.15;4.37;;;;;;;33.15;28.23;98060.88;4500870;31;20164;-85
2022/06/20 10:22:47;;;;;;;9.10;3.90;;;;;;;33.06;28.36;98058.53;4500739;31;20179;-84
2022/06/20 10:25:34;;;;;;;9.25;4.20;;;;;;;33.25;28.20;98055.59;4500725;31;20475;-85
2022/06/20 10:28:02;;;;;;;11.30;4.43;;;;;;;33.22;27.50;98053.34;4500501;31;20175;-84
2022/06/20 10:30:47;;;;;;;11.50;4.57;;;;;;;33.15;27.54;98050.81;4501869;31;20123;-84
2022/06/20 10:33:39;;;;;;;17.85;4.97;;;;;;;33.14;27.79;98053.78;4501658;31;20079;-85
2022/06/20 10:36:23;;;;;;;8.57;4.40;;;;;;;33.16;27.80;98057.06;4423744;32;20494;-84
2022/06/20 10:39:10;;;;;;;10.95;4.40;;;;;;;33.20;28.37;98053.59;4424491;32;20105;-84
2022/06/20 10:41:44;;;;;;;20.02;5.62;;;;;;;33.19;27.71;98051.97;4437261;32;20113;-85
2022/06/20 10:44:42;;;;;;;13.75;4.90;;;;;;;33.15;27.84;98047.22;4439078;32;20231;-84
2022/06/20 10:47:15;;;;;;;13.02;5.50;;;;;;;33.13;27.62;98044.75;4393330;32;20116;-84
2022/06/20 10:49:52;;;;;;;11.65;4.60;;;;;;;33.09;27.96;98049.84;4393265;32;20184;-84
2022/06/20 10:52:32;;;;;;;11.32;5.00;;;;;;;33.10;28.01;98053.44;4380763;32;20137;-84
2022/06/20 10:55:08;;;;;;;11.25;4.43;;;;;;;33.13;28.04;98039.31;4393235;32;20098;-84
2022/06/20 10:58:09;;;;;;;9.73;4.85;;;;;;;33.24;28.01;98046.56;4393251;32;20082;-85
2022/06/20 11:00:46;;;;;;;29.05;6.32;;;;;;;33.20;28.14;98044.59;4348381;33;20170;-84
2022/06/20 11:03:37;;;;;;;14.80;5.53;;;;;;;33.18;28.42;98030.38;4348272;33;20594;-84
2022/06/20 11:06:17;;;;;;;15.45;5.28;;;;;;;33.13;27.77;98025.66;4348622;33;20859;-84
2022/06/20 11:09:00;;;;;;;14.80;5.10;;;;;;;33.09;27.51;98027.22;4348457;33;20107;-84
2022/06/20 11:11:58;;;;;;;10.07;4.90;;;;;;;33.14;27.23;98023.75;4348193;33;20107;-85
2022/06/20 11:14:31;;;;;;;11.27;4.70;;;;;;;33.18;27.60;98024.91;4279985;33;20133;-84
2022/06/20 11:17:07;;;;;;;9.30;4.75;;;;;;;33.23;27.62;98016.81;4304078;33;20096;-84
2022/06/20 11:19:48;;;;;;;20.12;5.62;;;;;;;33.32;27.15;98012.56;4304293;33;20222;-84
2022/06/20 11:22:41;;;;;;;10.88;4.47;;;;;;;33.24;26.63;98000.16;4320886;32;20103;-84
2022/06/20 11:25:28;;;;;;;11.85;4.10;;;;;;;33.25;26.67;98007.28;4362939;32;20407;-84
2022/06/20 11:28:36;;;;;;;10.82;4.55;;;;;;;33.23;26.43;98014.06;4362996;32;20094;-84
2022/06/20 11:31:15;;;;;;;20.65;5.30;;;;;;;33.26;26.38;98019.87;4362936;32;20071;-84
2022/06/20 11:34:14;;;;;;;9.70;4.47;;;;;;;33.41;26.89;98023.88;4363046;32;20126;-84
2022/06/20 11:37:00;;;;;;;9.55;3.87;;;;;;;33.26;26.84;98017.13;4394984;32;20122;-84
2022/06/20 11:39:47;;;;;;;13.95;4.55;;;;;;;33.29;26.22;98011.16;4438656;32;20484;-84
2022/06/20 11:42:47;;;;;;;12.55;5.62;;;;;;;33.46;25.91;98022.06;4425815;32;20105;-84
2022/06/20 11:45:50;;;;;;;12.32;4.70;;;;;;;33.44;26.38;98018.75;4438566;32;20123;-84
2022/06/20 11:48:38;;;;;;;9.50;4.32;;;;;;;33.41;25.94;98010.25;4438683;32;20174;-84
2022/06/20 11:51:43;;;;;;;11.35;4.65;;;;;;;33.48;25.86;98008.16;4462442;31;20111;-84
2022/06/20 11:54:28;;;;;;;12.98;4.75;;;;;;;33.54;26.29;98015.34;4501308;31;20106;-84
2022/06/20 11:57:30;;;;;;;10.43;4.55;;;;;;;33.49;26.63;98016.12;4503383;31;20096;-84
2022/06/20 11:59:59;;;;;;;10.10;5.03;;;;;;;33.53;26.55;98013.69;4503608;31;20098;-84
2022/06/20 12:02:37;;;;;;;10.13;5.28;;;;;;;33.58;26.42;98023.88;4502093;31;20160;-84
2022/06/20 12:05:17;;;;;;;15.80;5.22;;;;;;;33.56;26.91;98009.63;4503313;31;20477;-84
2022/06/20 12:07:46;;;;;;;10.73;4.53;;;;;;;33.62;26.44;98006.72;4503167;31;20560;-84
2022/06/20 12:10:19;;;;;;;9.20;4.37;;;;;;;33.62;26.28;97994.97;4501994;31;20092;-84
2022/06/20 12:12:47;;;;;;;11.80;4.97;;;;;;;33.64;26.06;97996.37;4503311;31;20512;-85
2022/06/20 12:15:46;;;;;;;11.00;4.25;;;;;;;33.61;25.97;98004.22;4503067;31;20114;-84
2022/06/20 12:18:11;;;;;;;9.70;4.10;;;;;;;33.63;25.25;98002.09;4503204;31;20120;-84
2022/06/20 12:23:43;;;;;;;22.27;5.07;;;;;;;33.63;25.42;97985.72;4502135;31;20107;-84